createdAt,value
2019-01-26T00:01:05.810Z,75.06
2019-01-26T00:03:34.358Z,75.06
2019-01-26T00:06:02.911Z,74.98
2019-01-26T00:08:31.508Z,74.98
2019-01-26T00:11:00.048Z,74.71
2019-01-26T00:13:28.745Z,74.67
2019-01-26T00:15:57.326Z,74.56
2019-01-26T00:18:25.875Z,74.46
2019-01-26T00:20:54.428Z,74.48
2019-01-26T00:23:23.018Z,74.49
2019-01-26T00:25:51.593Z,74.47
2019-01-26T00:28:20.133Z,74.32
2019-01-26T00:30:48.766Z,74.33
2019-01-26T00:33:17.312Z,74.29
2019-01-26T00:35:45.848Z,74.21
2019-01-26T00:38:14.539Z,74.21
2019-01-26T00:40:43.074Z,74.18
2019-01-26T00:43:11.631Z,74.31
2019-01-26T00:45:40.228Z,74.25
2019-01-26T00:48:08.772Z,74.23
2019-01-26T00:50:37.334Z,74.21
2019-01-26T00:53:05.919Z,74.20
2019-01-26T00:55:34.459Z,74.19
2019-01-26T00:58:03.013Z,74.31
2019-01-26T01:00:31.598Z,74.44
2019-01-26T01:03:00.153Z,74.63
2019-01-26T01:05:28.696Z,74.84
2019-01-26T01:07:57.299Z,75.08
2019-01-26T01:10:25.848Z,75.49
2019-01-26T01:12:54.395Z,76.37
2019-01-26T01:15:23.239Z,76.72
2019-01-26T01:17:51.780Z,77.40
2019-01-26T01:20:20.574Z,77.59
2019-01-26T01:22:49.168Z,77.94
2019-01-26T01:25:17.797Z,78.09
2019-01-26T01:27:46.345Z,78.35
2019-01-26T01:30:17.931Z,78.61
2019-01-26T01:32:46.560Z,78.83
2019-01-26T01:35:15.168Z,78.79
2019-01-26T01:37:43.777Z,78.95
2019-01-26T01:40:15.640Z,78.91
2019-01-26T01:42:44.319Z,79.07
2019-01-26T01:45:18.508Z,79.27
2019-01-26T01:47:47.174Z,79.32
2019-01-26T01:50:16.256Z,79.44
2019-01-26T01:52:44.842Z,79.66
2019-01-26T01:55:13.823Z,79.87
2019-01-26T01:57:42.433Z,80.62
2019-01-26T02:00:20.198Z,81.01
2019-01-26T02:02:48.749Z,81.30
2019-01-26T02:05:17.300Z,81.85
2019-01-26T02:07:45.944Z,81.85
2019-01-26T02:10:17.204Z,82.09
2019-01-26T02:12:45.746Z,82.21
2019-01-26T02:15:14.702Z,82.36
2019-01-26T02:17:43.317Z,82.48
2019-01-26T02:20:14.987Z,82.38
2019-01-26T02:22:43.591Z,82.70
2019-01-26T02:25:12.225Z,82.51
2019-01-26T02:27:40.763Z,82.53
2019-01-26T02:30:20.826Z,82.87
2019-01-26T02:32:49.361Z,82.88
2019-01-26T02:35:17.901Z,82.96
2019-01-26T02:37:46.558Z,82.96
2019-01-26T02:40:16.947Z,82.79
2019-01-26T02:42:46.586Z,82.86
2019-01-26T02:45:16.212Z,82.90
2019-01-26T02:47:44.826Z,82.88
2019-01-26T02:50:16.191Z,82.93
2019-01-26T02:52:44.866Z,82.95
2019-01-26T02:55:13.760Z,82.98
2019-01-26T02:57:42.385Z,82.93
2019-01-26T03:00:19.097Z,82.95
2019-01-26T03:02:47.684Z,82.92
2019-01-26T03:05:16.343Z,82.89
2019-01-26T03:07:44.938Z,82.86
2019-01-26T03:10:18.717Z,82.70
2019-01-26T03:12:47.325Z,82.52
2019-01-26T03:15:18.360Z,82.57
2019-01-26T03:17:46.966Z,82.33
2019-01-26T03:20:16.673Z,82.32
2019-01-26T03:22:45.313Z,82.22
2019-01-26T03:25:15.405Z,82.14
2019-01-26T03:27:43.878Z,82.18
2019-01-26T03:30:21.261Z,82.09
2019-01-26T03:32:49.798Z,81.94
2019-01-26T03:35:18.405Z,82.04
2019-01-26T03:37:47.072Z,82.02
2019-01-26T03:40:18.168Z,81.85
2019-01-26T03:42:46.785Z,81.87
2019-01-26T03:45:16.810Z,81.87
2019-01-26T03:47:45.504Z,81.85
2019-01-26T03:50:15.801Z,81.97
2019-01-26T03:52:44.464Z,82.08
2019-01-26T03:55:15.639Z,82.17
2019-01-26T03:57:44.112Z,82.27
2019-01-26T04:00:21.471Z,82.27
2019-01-26T04:02:50.027Z,82.50
2019-01-26T04:05:18.646Z,82.71
2019-01-26T04:07:47.400Z,82.98
2019-01-26T04:10:16.329Z,83.22
2019-01-26T04:12:45.015Z,83.10
2019-01-26T04:15:16.330Z,83.24
2019-01-26T04:17:45.228Z,83.37
2019-01-26T04:20:16.674Z,83.47
2019-01-26T04:22:45.251Z,83.52
2019-01-26T04:25:13.944Z,83.81
2019-01-26T04:27:42.500Z,83.99
2019-01-26T04:30:13.933Z,84.05
2019-01-26T04:32:42.479Z,84.19
2019-01-26T04:35:11.577Z,84.20
2019-01-26T04:37:40.156Z,84.25
2019-01-26T04:40:11.343Z,84.27
2019-01-26T04:42:39.902Z,84.27
2019-01-26T04:45:20.063Z,84.08
2019-01-26T04:47:49.911Z,84.00
2019-01-26T04:50:20.035Z,83.86
2019-01-26T04:52:48.631Z,83.79
2019-01-26T04:55:19.326Z,83.78
2019-01-26T04:57:47.957Z,83.80
2019-01-26T05:00:24.566Z,83.88
2019-01-26T05:02:53.186Z,83.70
2019-01-26T05:05:21.871Z,83.72
2019-01-26T05:07:50.449Z,83.55
2019-01-26T05:10:20.635Z,83.59
2019-01-26T05:12:49.943Z,83.64
2019-01-26T05:15:19.441Z,83.64
2019-01-26T05:17:48.090Z,83.73
2019-01-26T05:20:19.373Z,83.67
2019-01-26T05:22:48.034Z,83.63
2019-01-26T05:25:16.496Z,83.90
2019-01-26T05:27:45.052Z,83.97
2019-01-26T05:30:22.181Z,84.08
2019-01-26T05:32:50.732Z,84.15
2019-01-26T05:35:19.466Z,84.17
2019-01-26T05:37:48.132Z,84.17
2019-01-26T05:40:17.930Z,84.20
2019-01-26T05:42:46.472Z,84.45
2019-01-26T05:45:20.302Z,84.54
2019-01-26T05:47:49.711Z,84.67
2019-01-26T05:50:20.903Z,84.75
2019-01-26T05:52:49.515Z,84.67
2019-01-26T05:55:18.195Z,84.62
2019-01-26T05:57:46.749Z,84.62
2019-01-26T06:00:22.494Z,84.59
2019-01-26T06:02:51.057Z,84.58
2019-01-26T06:05:19.612Z,84.62
2019-01-26T06:07:50.024Z,84.45
2019-01-26T06:10:18.705Z,84.38
2019-01-26T06:12:47.261Z,84.33
2019-01-26T06:15:15.850Z,84.50
2019-01-26T06:17:44.442Z,84.46
2019-01-26T06:20:16.775Z,84.28
2019-01-26T06:22:45.451Z,84.14
2019-01-26T06:25:17.226Z,83.94
2019-01-26T06:27:45.776Z,83.98
2019-01-26T06:30:43.558Z,83.90
2019-01-26T06:33:12.118Z,84.05
2019-01-26T06:35:40.670Z,84.04
2019-01-26T06:38:09.239Z,83.75
2019-01-26T06:40:37.791Z,83.66
2019-01-26T06:43:06.341Z,83.78
2019-01-26T06:45:34.925Z,83.85
2019-01-26T06:48:03.477Z,83.76
2019-01-26T06:50:32.029Z,83.71
2019-01-26T06:53:00.780Z,83.72
2019-01-26T06:55:29.335Z,83.58
2019-01-26T06:57:58.137Z,83.55
2019-01-26T07:00:29.586Z,83.70
2019-01-26T07:02:58.104Z,83.59
2019-01-26T07:05:28.446Z,83.28
2019-01-26T07:07:57.043Z,83.37
2019-01-26T07:10:25.595Z,83.38
2019-01-26T07:12:54.064Z,83.36
2019-01-26T07:15:22.568Z,83.48
2019-01-26T07:17:51.120Z,83.40
2019-01-26T07:20:19.664Z,83.54
2019-01-26T07:22:48.328Z,83.44
2019-01-26T07:25:16.862Z,83.44
2019-01-26T07:27:45.433Z,83.37
2019-01-26T07:30:22.007Z,83.32
2019-01-26T07:32:50.458Z,83.42
2019-01-26T07:35:18.920Z,83.29
2019-01-26T07:37:47.416Z,83.40
2019-01-26T07:40:18.619Z,83.48
2019-01-26T07:42:47.174Z,83.50
2019-01-26T07:45:15.930Z,83.43
2019-01-26T07:47:44.382Z,83.41
2019-01-26T07:50:16.102Z,83.50
2019-01-26T07:52:44.594Z,83.32
2019-01-26T07:55:13.521Z,83.23
2019-01-26T07:57:42.055Z,83.19
2019-01-26T08:00:22.122Z,83.23
2019-01-26T08:02:50.598Z,83.11
2019-01-26T08:05:19.212Z,83.44
2019-01-26T08:07:47.714Z,83.49
2019-01-26T08:10:21.374Z,83.61
2019-01-26T08:12:50.079Z,83.82
2019-01-26T08:15:27.322Z,83.86
2019-01-26T08:17:55.795Z,83.83
2019-01-26T08:20:24.389Z,83.92
2019-01-26T08:22:53.061Z,83.58
2019-01-26T08:25:21.612Z,83.58
2019-01-26T08:27:50.230Z,83.48
2019-01-26T08:30:23.177Z,83.60
2019-01-26T08:32:51.876Z,83.22
2019-01-26T08:35:20.542Z,83.23
2019-01-26T08:37:49.698Z,83.37
2019-01-26T08:40:20.558Z,83.45
2019-01-26T08:42:50.632Z,83.32
2019-01-26T08:45:19.193Z,83.25
2019-01-26T08:47:47.858Z,83.29
2019-01-26T08:50:18.752Z,83.17
2019-01-26T08:52:47.289Z,83.01
2019-01-26T08:55:18.367Z,82.76
2019-01-26T08:57:46.324Z,82.83
2019-01-26T09:00:18.712Z,82.74
2019-01-26T09:02:55.519Z,82.78
2019-01-26T09:05:34.815Z,82.89
2019-01-26T09:08:03.297Z,82.99
2019-01-26T09:10:31.756Z,83.11
2019-01-26T09:13:00.246Z,82.97
2019-01-26T09:15:28.724Z,83.10
2019-01-26T09:17:57.401Z,83.06
2019-01-26T09:20:25.881Z,82.91
2019-01-26T09:22:54.377Z,82.75
2019-01-26T09:25:22.837Z,82.82
2019-01-26T09:27:51.425Z,82.79
2019-01-26T09:30:21.919Z,82.58
2019-01-26T09:32:50.549Z,82.43
2019-01-26T09:35:19.584Z,82.38
2019-01-26T09:37:48.114Z,82.34
2019-01-26T09:40:20.380Z,82.04
2019-01-26T09:42:48.847Z,81.74
2019-01-26T09:45:18.721Z,81.55
2019-01-26T09:47:47.857Z,81.14
2019-01-26T09:50:16.955Z,81.13
2019-01-26T09:52:45.484Z,80.96
2019-01-26T09:55:18.052Z,80.77
2019-01-26T09:57:46.523Z,80.67
2019-01-26T10:00:18.940Z,80.82
2019-01-26T10:02:47.453Z,80.87
2019-01-26T10:05:16.690Z,80.83
2019-01-26T10:07:45.148Z,80.92
2019-01-26T10:10:18.456Z,80.90
2019-01-26T10:12:46.922Z,80.66
2019-01-26T10:15:18.131Z,80.54
2019-01-26T10:17:46.734Z,80.45
2019-01-26T10:20:21.271Z,80.40
2019-01-26T10:22:49.735Z,80.48
2019-01-26T10:25:18.702Z,80.29
2019-01-26T10:27:47.225Z,80.27
2019-01-26T10:30:22.756Z,80.32
2019-01-26T10:32:51.223Z,80.28
2019-01-26T10:35:19.682Z,80.19
2019-01-26T10:37:48.257Z,80.03
2019-01-26T10:40:35.073Z,80.19
2019-01-26T10:43:05.021Z,80.19
2019-01-26T10:45:33.471Z,80.30
2019-01-26T10:48:01.934Z,80.32
2019-01-26T10:50:30.437Z,80.17
2019-01-26T10:52:58.894Z,80.02
2019-01-26T10:55:27.363Z,79.87
2019-01-26T10:57:55.917Z,79.66
2019-01-26T11:00:24.451Z,79.72
2019-01-26T11:02:52.911Z,79.68
2019-01-26T11:05:21.474Z,79.52
2019-01-26T11:07:49.937Z,79.39
2019-01-26T11:10:18.475Z,79.40
2019-01-26T11:12:46.979Z,79.30
2019-01-26T11:15:15.425Z,79.32
2019-01-26T11:17:43.894Z,79.12
2019-01-26T11:20:14.633Z,79.04
2019-01-26T11:22:43.480Z,79.00
2019-01-26T11:25:13.184Z,79.00
2019-01-26T11:27:41.966Z,78.95
2019-01-26T11:30:15.890Z,79.02
2019-01-26T11:32:44.512Z,79.01
2019-01-26T11:35:15.424Z,78.96
2019-01-26T11:37:43.893Z,78.88
2019-01-26T11:40:14.858Z,78.92
2019-01-26T11:42:43.349Z,78.99
2019-01-26T11:45:15.591Z,79.03
2019-01-26T11:47:44.061Z,79.11
2019-01-26T11:50:14.072Z,79.69
2019-01-26T11:52:42.532Z,79.69
2019-01-26T11:55:12.772Z,79.42
2019-01-26T11:57:41.278Z,79.31
2019-01-26T12:00:33.159Z,79.17
2019-01-26T12:03:03.612Z,78.94
2019-01-26T12:05:34.278Z,79.19
2019-01-26T12:08:02.755Z,79.19
2019-01-26T12:10:31.248Z,79.15
2019-01-26T12:12:59.702Z,79.70
2019-01-26T12:15:28.182Z,79.70
2019-01-26T12:17:56.720Z,79.47
2019-01-26T12:20:25.185Z,79.57
2019-01-26T12:22:53.651Z,79.43
2019-01-26T12:25:22.158Z,79.43
2019-01-26T12:27:50.759Z,79.97
2019-01-26T12:30:19.218Z,79.79
2019-01-26T12:32:47.824Z,79.60
2019-01-26T12:35:16.289Z,79.25
2019-01-26T12:37:44.757Z,79.74
2019-01-26T12:40:14.781Z,80.03
2019-01-26T12:42:43.266Z,80.03
2019-01-26T12:45:14.864Z,80.18
2019-01-26T12:47:43.454Z,80.18
2019-01-26T12:50:12.851Z,80.47
2019-01-26T12:52:42.216Z,81.13
2019-01-26T12:55:13.965Z,81.75
2019-01-26T12:57:42.542Z,81.74
2019-01-26T13:00:14.202Z,81.74
2019-01-26T13:02:42.786Z,81.71
2019-01-26T13:05:11.329Z,81.71
2019-01-26T13:07:40.833Z,82.15
2019-01-26T13:10:12.533Z,82.41
2019-01-26T13:12:40.986Z,82.54
2019-01-26T13:15:15.176Z,82.72
2019-01-26T13:17:39.737Z,83.01
2019-01-26T13:20:16.280Z,83.12
2019-01-26T13:22:44.795Z,83.26
2019-01-26T13:25:16.192Z,83.48
2019-01-26T13:27:44.657Z,83.63
2019-01-26T13:30:20.812Z,83.81
2019-01-26T13:32:49.281Z,83.81
2019-01-26T13:35:17.821Z,84.24
2019-01-26T13:37:46.425Z,84.26
2019-01-26T13:40:26.149Z,84.57
2019-01-26T13:42:54.660Z,84.57
2019-01-26T13:45:23.119Z,84.75
2019-01-26T13:47:51.582Z,84.58
2019-01-26T13:50:20.179Z,84.58
2019-01-26T13:52:48.638Z,84.31
2019-01-26T13:55:19.897Z,84.51
2019-01-26T13:57:48.471Z,84.44
2019-01-26T14:00:22.884Z,84.44
2019-01-26T14:02:51.430Z,84.75
2019-01-26T14:05:19.995Z,84.89
2019-01-26T14:07:48.463Z,85.13
2019-01-26T14:10:24.892Z,84.90
2019-01-26T14:12:53.740Z,85.22
2019-01-26T14:15:25.562Z,85.00
2019-01-26T14:17:54.137Z,85.80
2019-01-26T14:20:29.570Z,85.80
2019-01-26T14:22:58.152Z,85.49
2019-01-26T14:25:27.294Z,85.70
2019-01-26T14:27:55.832Z,85.70
2019-01-26T14:30:30.037Z,86.08
2019-01-26T14:32:58.529Z,85.96
2019-01-26T14:35:27.004Z,86.10
2019-01-26T14:37:55.524Z,85.99
2019-01-26T14:40:24.089Z,86.12
2019-01-26T14:42:54.386Z,86.17
2019-01-26T14:45:22.737Z,86.26
2019-01-26T14:47:51.243Z,86.28
2019-01-26T14:50:20.168Z,86.29
2019-01-26T14:52:48.645Z,86.43
2019-01-26T14:55:22.755Z,86.59
2019-01-26T14:57:51.274Z,87.19
2019-01-26T15:00:31.634Z,87.19
2019-01-26T15:03:00.089Z,86.91
2019-01-26T15:05:28.733Z,86.99
2019-01-26T15:07:57.620Z,87.05
2019-01-26T15:10:26.640Z,87.43
2019-01-26T15:12:55.334Z,86.87
2019-01-26T15:15:23.873Z,86.82
2019-01-26T15:17:52.356Z,86.81
2019-01-26T15:20:26.818Z,86.81
2019-01-26T15:22:55.321Z,87.08
2019-01-26T15:25:23.775Z,87.23
2019-01-26T15:27:52.238Z,87.86
2019-01-26T15:30:26.926Z,87.86
2019-01-26T15:32:55.384Z,87.51
2019-01-26T15:35:23.832Z,87.55
2019-01-26T15:37:52.388Z,87.39
2019-01-26T15:40:20.929Z,87.52
2019-01-26T15:42:49.471Z,87.43
2019-01-26T15:45:23.287Z,87.33
2019-01-26T15:47:51.811Z,87.33
2019-01-26T15:50:20.265Z,87.06
2019-01-26T15:52:48.790Z,87.86
2019-01-26T15:55:20.439Z,87.86
2019-01-26T15:57:48.970Z,87.65
2019-01-26T16:00:20.007Z,87.18
2019-01-26T16:02:48.473Z,87.18
2019-01-26T16:05:17.005Z,87.75
2019-01-26T16:07:45.484Z,87.96
2019-01-26T16:10:17.281Z,87.96
2019-01-26T16:12:45.738Z,88.38
2019-01-26T16:15:20.811Z,88.38
2019-01-26T16:17:49.437Z,87.87
2019-01-26T16:20:20.420Z,88.04
2019-01-26T16:22:49.149Z,88.50
2019-01-26T16:25:17.749Z,88.50
2019-01-26T16:27:46.274Z,88.38
2019-01-26T16:30:20.981Z,88.39
2019-01-26T16:32:49.443Z,88.42
2019-01-26T16:35:18.844Z,88.27
2019-01-26T16:37:47.695Z,88.19
2019-01-26T16:40:27.800Z,88.32
2019-01-26T16:42:56.358Z,88.32
2019-01-26T16:45:30.403Z,88.83
2019-01-26T16:47:58.865Z,89.23
2019-01-26T16:50:29.299Z,89.23
2019-01-26T16:52:57.832Z,88.99
2019-01-26T16:55:26.434Z,88.87
2019-01-26T16:57:54.918Z,89.43
2019-01-26T17:00:35.150Z,89.06
2019-01-26T17:03:03.723Z,89.06
2019-01-26T17:05:32.180Z,89.54
2019-01-26T17:08:00.720Z,89.28
2019-01-26T17:10:34.094Z,89.52
2019-01-26T17:12:59.480Z,89.52
2019-01-26T17:15:28.016Z,89.42
2019-01-26T17:17:57.621Z,89.43
2019-01-26T17:20:34.613Z,89.79
2019-01-26T17:22:58.418Z,89.79
2019-01-26T17:25:26.908Z,89.38
2019-01-26T17:27:55.436Z,88.70
2019-01-26T17:30:26.715Z,88.70
2019-01-26T17:32:55.195Z,89.29
2019-01-26T17:35:23.658Z,88.99
2019-01-26T17:37:52.123Z,88.99
2019-01-26T17:40:22.688Z,88.80
2019-01-26T17:42:51.138Z,89.03
2019-01-26T17:45:20.238Z,89.03
2019-01-26T17:47:49.154Z,89.27
2019-01-26T17:50:22.667Z,89.11
2019-01-26T17:52:51.199Z,88.90
2019-01-26T17:55:19.785Z,88.90
2019-01-26T17:57:48.313Z,89.20
2019-01-26T18:00:27.081Z,89.09
2019-01-26T18:02:55.717Z,88.50
2019-01-26T18:05:24.252Z,88.50
2019-01-26T18:07:52.762Z,89.46
2019-01-26T18:10:23.932Z,89.21
2019-01-26T18:12:52.462Z,89.21
2019-01-26T18:15:20.961Z,88.92
2019-01-26T18:17:49.435Z,89.03
2019-01-26T18:20:25.085Z,89.03
2019-01-26T18:22:53.621Z,89.11
2019-01-26T18:25:23.727Z,89.11
2019-01-26T18:27:52.309Z,88.76
2019-01-26T18:30:29.457Z,90.47
2019-01-26T18:32:57.956Z,90.09
2019-01-26T18:35:26.425Z,90.38
2019-01-26T18:37:54.975Z,89.44
2019-01-26T18:40:26.268Z,89.17
2019-01-26T18:42:55.036Z,88.87
2019-01-26T18:45:25.639Z,88.88
2019-01-26T18:47:54.285Z,89.24
2019-01-26T18:50:31.973Z,89.24
2019-01-26T18:53:00.631Z,88.81
2019-01-26T18:55:29.094Z,89.16
2019-01-26T18:57:57.564Z,89.16
2019-01-26T19:00:29.240Z,88.66
2019-01-26T19:03:09.868Z,88.59
2019-01-26T19:05:39.612Z,89.01
2019-01-26T19:08:08.624Z,89.01
2019-01-26T19:10:37.175Z,89.14
2019-01-26T19:13:05.755Z,88.70
2019-01-26T19:15:34.284Z,88.62
2019-01-26T19:18:02.740Z,88.67
2019-01-26T19:20:31.253Z,88.77
2019-01-26T19:23:00.089Z,88.76
2019-01-26T19:25:28.549Z,88.90
2019-01-26T19:27:57.026Z,89.01
2019-01-26T19:30:25.574Z,89.10
2019-01-26T19:32:54.421Z,89.25
2019-01-26T19:35:23.553Z,89.35
2019-01-26T19:37:52.010Z,89.37
2019-01-26T19:40:24.444Z,89.46
2019-01-26T19:42:53.013Z,89.44
2019-01-26T19:45:22.727Z,89.53
2019-01-26T19:47:51.200Z,89.52
2019-01-26T19:50:25.494Z,89.55
2019-01-26T19:52:54.017Z,89.40
2019-01-26T19:55:24.016Z,89.49
2019-01-26T19:57:52.530Z,89.43
2019-01-26T20:00:21.001Z,89.48
2019-01-26T20:02:49.521Z,89.46
2019-01-26T20:05:22.871Z,89.32
2019-01-26T20:07:51.334Z,89.33
2019-01-26T20:10:20.426Z,89.33
2019-01-26T20:12:48.929Z,88.85
2019-01-26T20:15:22.817Z,88.85
2019-01-26T20:17:51.370Z,89.30
2019-01-26T20:20:39.236Z,89.28
2019-01-26T20:23:07.943Z,89.55
2019-01-26T20:25:37.429Z,89.55
2019-01-26T20:28:06.163Z,89.21
2019-01-26T20:30:35.376Z,89.53
2019-01-26T20:33:03.978Z,89.49
2019-01-26T20:35:32.477Z,89.49
2019-01-26T20:38:00.927Z,89.27
2019-01-26T20:40:29.391Z,89.25
2019-01-26T20:42:57.893Z,89.25
2019-01-26T20:45:28.580Z,89.27
2019-01-26T20:47:57.035Z,89.13
2019-01-26T20:50:25.625Z,89.12
2019-01-26T20:52:54.089Z,89.06
2019-01-26T20:55:22.556Z,89.07
2019-01-26T20:57:52.012Z,89.14
2019-01-26T21:00:28.838Z,89.00
2019-01-26T21:02:57.511Z,89.83
2019-01-26T21:05:26.057Z,89.83
2019-01-26T21:07:54.585Z,89.76
2019-01-26T21:10:28.064Z,89.86
2019-01-26T21:12:58.102Z,89.94
2019-01-26T21:15:27.000Z,90.02
2019-01-26T21:17:55.661Z,90.22
2019-01-26T21:20:25.955Z,90.41
2019-01-26T21:22:54.456Z,90.59
2019-01-26T21:25:23.019Z,91.09
2019-01-26T21:27:52.592Z,91.09
2019-01-26T21:30:23.567Z,91.04
2019-01-26T21:32:52.075Z,91.15
2019-01-26T21:35:20.594Z,91.23
2019-01-26T21:37:49.193Z,91.32
2019-01-26T21:40:29.107Z,91.42
2019-01-26T21:42:58.240Z,91.25
2019-01-26T21:45:26.701Z,91.25
2019-01-26T21:47:55.264Z,91.64
2019-01-26T21:50:27.333Z,91.80
2019-01-26T21:52:56.220Z,91.86
2019-01-26T21:55:24.787Z,91.90
2019-01-26T21:57:53.249Z,91.93
2019-01-26T22:00:29.920Z,91.88
2019-01-26T22:02:58.381Z,91.98
2019-01-26T22:05:26.907Z,92.06
2019-01-26T22:07:55.402Z,92.54
2019-01-26T22:10:27.038Z,92.54
2019-01-26T22:12:55.574Z,92.49
2019-01-26T22:15:24.908Z,92.49
2019-01-26T22:17:53.537Z,92.22
2019-01-26T22:20:28.840Z,92.39
2019-01-26T22:22:58.133Z,92.47
2019-01-26T22:25:26.605Z,92.29
2019-01-26T22:27:55.726Z,92.79
2019-01-26T22:30:30.149Z,92.62
2019-01-26T22:32:58.733Z,92.62
2019-01-26T22:35:27.184Z,92.20
2019-01-26T22:37:55.873Z,92.17
2019-01-26T22:40:29.760Z,92.06
2019-01-26T22:42:58.291Z,91.77
2019-01-26T22:45:27.095Z,91.52
2019-01-26T22:47:55.703Z,91.52
2019-01-26T22:50:29.407Z,92.31
2019-01-26T22:52:57.968Z,92.31
2019-01-26T22:55:27.024Z,92.25
2019-01-26T22:57:55.920Z,92.39
2019-01-26T23:00:55.195Z,92.33
2019-01-26T23:03:35.585Z,92.48
2019-01-26T23:06:15.971Z,92.62
2019-01-26T23:08:46.245Z,92.45
2019-01-26T23:11:29.233Z,92.45
2019-01-26T23:14:00.864Z,92.68
2019-01-26T23:16:41.380Z,92.68
2019-01-26T23:19:25.012Z,92.60
2019-01-26T23:22:21.071Z,92.50
2019-01-26T23:25:01.403Z,92.43
2019-01-26T23:27:52.471Z,92.42
2019-01-26T23:30:40.562Z,91.93
2019-01-26T23:33:10.054Z,91.93
2019-01-26T23:35:38.502Z,92.36
2019-01-26T23:38:06.953Z,92.25
2019-01-26T23:40:35.423Z,92.05
2019-01-26T23:43:04.249Z,92.05
2019-01-26T23:45:32.703Z,92.17
2019-01-26T23:48:01.207Z,92.17
2019-01-26T23:50:29.654Z,92.61
2019-01-26T23:52:58.117Z,92.87
2019-01-26T23:55:26.594Z,92.86
2019-01-26T23:57:55.054Z,92.61
